Time;durP1;ratioP1;P1;durP2;ratioP2;P2;SDS_P1;SDS_P2;PMS_P1;PMS_P2;Temp;Humidity;BMP_temperature;BMP_pressure;BME280_temperature;BME280_humidity;BME280_pressure;Samples;Min_cycle;Max_cycle;Signal;HPM_P1;HPM_P2
2023/11/19 00:00:12;;;;;;;10.87;7.70;;;7.20;86.30;;;;;;5059658;28;20220;-63
2023/11/19 00:02:40;;;;;;;17.37;7.83;;;7.20;86.20;;;;;;5052553;28;20198;-63
2023/11/19 00:05:11;;;;;;;10.43;6.97;;;7.20;86.00;;;;;;5058615;28;20246;-63
2023/11/19 00:07:43;;;;;;;12.40;6.67;;;7.20;85.80;;;;;;5062062;28;20222;-63
2023/11/19 00:10:18;;;;;;;12.20;7.07;;;7.20;85.60;;;;;;5051357;28;20227;-63
2023/11/19 00:12:46;;;;;;;15.80;7.77;;;7.20;85.60;;;;;;5065367;28;20209;-63
2023/11/19 00:15:14;;;;;;;10.97;6.70;;;7.20;85.60;;;;;;5065010;28;20217;-63
2023/11/19 00:17:45;;;;;;;12.63;6.83;;;7.20;85.40;;;;;;5061288;28;20259;-63
2023/11/19 00:20:13;;;;;;;8.83;6.73;;;7.20;85.40;;;;;;5067439;28;20255;-64
2023/11/19 00:22:44;;;;;;;9.77;6.37;;;7.20;85.50;;;;;;5065088;28;20204;-63
2023/11/19 00:25:14;;;;;;;11.90;7.37;;;7.20;85.60;;;;;;5067806;28;20693;-63
2023/11/19 00:27:44;;;;;;;12.33;7.23;;;7.10;85.70;;;;;;5061376;28;20252;-63
2023/11/19 00:30:13;;;;;;;10.47;6.37;;;7.10;86.00;;;;;;5058222;28;20211;-64
2023/11/19 00:32:41;;;;;;;12.17;7.00;;;7.10;86.30;;;;;;5062366;28;20217;-63
2023/11/19 00:35:10;;;;;;;12.87;7.00;;;7.10;86.40;;;;;;5065187;28;20212;-63
2023/11/19 00:37:37;;;;;;;8.50;6.13;;;7.00;86.40;;;;;;5065128;28;20598;-63
2023/11/19 00:40:05;;;;;;;11.30;7.40;;;7.00;86.70;;;;;;5054569;28;20199;-63
2023/11/19 00:42:32;;;;;;;17.10;6.93;;;7.00;86.90;;;;;;5043371;28;20195;-64
2023/11/19 00:45:01;;;;;;;15.07;7.73;;;6.90;87.00;;;;;;5063053;28;20240;-64
2023/11/19 00:47:28;;;;;;;11.50;7.80;;;6.90;87.20;;;;;;5062713;28;20255;-64
2023/11/19 00:49:55;;;;;;;12.30;7.57;;;6.90;87.40;;;;;;5051099;28;20614;-63
2023/11/19 00:52:22;;;;;;;10.57;6.43;;;6.90;87.40;;;;;;5042996;28;20206;-63
2023/11/19 00:54:49;;;;;;;14.20;7.83;;;6.90;87.50;;;;;;5064045;28;20214;-63
2023/11/19 00:57:16;;;;;;;13.67;7.27;;;6.80;87.30;;;;;;5050745;28;20296;-64
2023/11/19 00:59:44;;;;;;;13.10;7.70;;;6.80;87.10;;;;;;5064374;28;20723;-63
2023/11/19 01:02:11;;;;;;;9.37;7.50;;;6.70;87.10;;;;;;5066271;28;20207;-63
2023/11/19 01:04:38;;;;;;;9.60;7.20;;;6.70;87.20;;;;;;5056888;28;20322;-63
2023/11/19 01:07:12;;;;;;;10.53;7.30;;;6.60;87.20;;;;;;5042775;28;20213;-64
2023/11/19 01:09:41;;;;;;;10.00;6.77;;;6.60;87.50;;;;;;5061586;28;20201;-64
2023/11/19 01:12:10;;;;;;;9.83;6.80;;;6.60;87.80;;;;;;5053952;28;20202;-64
2023/11/19 01:14:37;;;;;;;14.90;7.40;;;6.50;88.10;;;;;;5062282;28;20673;-63
2023/11/19 01:17:05;;;;;;;10.33;7.83;;;6.50;88.30;;;;;;5061004;28;20197;-63
2023/11/19 01:19:32;;;;;;;11.97;7.30;;;6.60;88.40;;;;;;5036605;28;20218;-63
2023/11/19 01:22:00;;;;;;;9.00;6.27;;;6.60;88.50;;;;;;5061809;28;20714;-64
2023/11/19 01:24:28;;;;;;;9.77;6.87;;;6.70;88.50;;;;;;5062697;28;20218;-63
2023/11/19 01:26:57;;;;;;;10.90;7.03;;;6.70;88.50;;;;;;5066777;28;20248;-63
2023/11/19 01:29:24;;;;;;;11.93;6.97;;;6.80;88.70;;;;;;5047371;28;20217;-63
2023/11/19 01:31:51;;;;;;;8.43;6.00;;;6.90;88.70;;;;;;5066523;28;20553;-64
2023/11/19 01:34:19;;;;;;;11.37;7.37;;;6.90;88.50;;;;;;5056506;28;20229;-63
2023/11/19 01:36:49;;;;;;;12.67;7.53;;;6.90;88.40;;;;;;5065504;28;20206;-63
2023/11/19 01:39:16;;;;;;;9.17;7.00;;;7.00;88.40;;;;;;5070921;28;20221;-63
2023/11/19 01:41:44;;;;;;;14.60;7.33;;;7.00;88.40;;;;;;5057061;28;20224;-63
2023/11/19 01:44:13;;;;;;;9.60;7.00;;;7.00;88.50;;;;;;5066273;28;20258;-63
2023/11/19 01:46:43;;;;;;;11.40;6.77;;;7.10;88.70;;;;;;5057082;28;20194;-63
2023/11/19 01:49:12;;;;;;;9.60;6.90;;;7.10;88.80;;;;;;5066223;28;20204;-64
2023/11/19 01:51:40;;;;;;;12.47;7.13;;;7.20;88.90;;;;;;5034868;28;20653;-63
2023/11/19 01:54:08;;;;;;;11.17;7.03;;;7.20;89.10;;;;;;5066392;28;20275;-63
2023/11/19 01:56:40;;;;;;;12.60;7.23;;;7.20;88.90;;;;;;5049256;28;20227;-64
2023/11/19 01:59:11;;;;;;;8.97;7.03;;;7.30;88.70;;;;;;5053336;28;20506;-64
2023/11/19 02:01:39;;;;;;;8.50;6.23;;;7.30;88.60;;;;;;5063597;28;20218;-64
2023/11/19 02:04:09;;;;;;;8.87;6.47;;;7.30;88.60;;;;;;5055189;28;20628;-64
2023/11/19 02:06:40;;;;;;;12.97;7.27;;;7.20;88.60;;;;;;5048128;28;20230;-64
2023/11/19 02:09:08;;;;;;;10.47;6.97;;;7.20;88.70;;;;;;5065669;28;20206;-64
2023/11/19 02:11:35;;;;;;;11.00;7.00;;;7.20;88.70;;;;;;5064178;28;20214;-64
2023/11/19 02:14:04;;;;;;;10.87;6.90;;;7.20;88.80;;;;;;5048624;28;20207;-64
2023/11/19 02:16:31;;;;;;;11.87;6.17;;;7.10;88.80;;;;;;5060890;28;20203;-64
2023/11/19 02:18:58;;;;;;;10.87;6.83;;;7.10;88.80;;;;;;5052420;28;20202;-64
2023/11/19 02:21:25;;;;;;;10.17;6.30;;;7.00;88.80;;;;;;5057611;28;20229;-64
2023/11/19 02:23:52;;;;;;;12.10;6.63;;;7.00;88.90;;;;;;5055194;28;20226;-64
2023/11/19 02:26:26;;;;;;;10.83;7.00;;;7.00;88.90;;;;;;5056270;28;20191;-64
2023/11/19 02:28:53;;;;;;;8.13;5.70;;;7.00;88.90;;;;;;5067051;28;20669;-64
2023/11/19 02:31:20;;;;;;;9.03;6.97;;;7.00;88.90;;;;;;5046100;28;20305;-64
2023/11/19 02:33:49;;;;;;;11.10;6.97;;;7.00;88.80;;;;;;5068653;28;20712;-63
2023/11/19 02:36:16;;;;;;;9.47;6.27;;;7.00;88.80;;;;;;5065731;28;20207;-63
2023/11/19 02:38:43;;;;;;;11.17;7.10;;;6.90;88.80;;;;;;5061832;28;20206;-63
2023/11/19 02:41:10;;;;;;;11.70;6.77;;;6.90;88.80;;;;;;5055793;28;20252;-63
2023/11/19 02:43:38;;;;;;;10.23;7.37;;;6.90;88.80;;;;;;5050768;28;20195;-63
2023/11/19 02:46:07;;;;;;;13.03;7.37;;;6.90;88.80;;;;;;5066553;28;20198;-63
2023/11/19 02:48:37;;;;;;;9.70;6.60;;;6.90;88.80;;;;;;5056276;28;20195;-63
2023/11/19 02:51:09;;;;;;;13.63;7.10;;;6.80;88.80;;;;;;5069467;28;20736;-63
2023/11/19 02:53:39;;;;;;;10.53;7.03;;;6.80;88.70;;;;;;5056931;28;20218;-64
2023/11/19 02:56:34;;;;;;;11.23;6.20;;;6.80;88.60;;;;;;5065425;28;20198;-63
2023/11/19 02:58:55;;;;;;;10.87;6.67;;;6.80;89.40;;;;;;5049390;28;20219;-63
2023/11/19 03:01:33;;;;;;;9.83;6.33;;;6.80;88.70;;;;;;5064665;28;20222;-63
2023/11/19 03:04:02;;;;;;;8.87;6.43;;;6.80;88.70;;;;;;5065118;28;20335;-63
2023/11/19 03:06:30;;;;;;;9.53;7.43;;;6.70;88.70;;;;;;5062361;28;20538;-63
2023/11/19 03:08:57;;;;;;;10.57;6.93;;;6.70;88.90;;;;;;5066021;28;20210;-63
2023/11/19 03:11:24;;;;;;;14.57;7.67;;;6.70;88.90;;;;;;5053621;28;20644;-63
2023/11/19 03:13:51;;;;;;;9.63;6.73;;;6.70;88.90;;;;;;5063831;28;20266;-63
2023/11/19 03:16:18;;;;;;;13.37;7.47;;;6.60;89.00;;;;;;5056839;28;20225;-63
2023/11/19 03:18:46;;;;;;;9.67;6.37;;;6.70;89.10;;;;;;5062341;28;20280;-63
2023/11/19 03:21:13;;;;;;;11.83;7.57;;;6.60;88.90;;;;;;5054088;28;20271;-63
2023/11/19 03:23:40;;;;;;;11.23;6.97;;;6.60;88.90;;;;;;5054815;28;20566;-64
2023/11/19 03:26:08;;;;;;;11.93;7.93;;;6.60;89.00;;;;;;5062602;28;20202;-64
2023/11/19 03:28:35;;;;;;;14.47;7.23;;;6.60;88.90;;;;;;5048443;28;20272;-64
2023/11/19 03:31:08;;;;;;;12.23;6.30;;;6.60;88.90;;;;;;5067611;28;20276;-64
2023/11/19 03:33:37;;;;;;;8.57;6.70;;;6.60;89.00;;;;;;5065620;28;20236;-64
2023/11/19 03:36:05;;;;;;;8.83;6.97;;;6.60;89.10;;;;;;5069452;28;20541;-64
2023/11/19 03:38:32;;;;;;;10.47;7.13;;;6.50;89.00;;;;;;5064236;28;20198;-63
2023/11/19 03:40:59;;;;;;;12.63;7.27;;;6.50;88.90;;;;;;5068154;28;20229;-63
2023/11/19 03:43:27;;;;;;;10.63;7.77;;;6.50;89.00;;;;;;5064808;28;20187;-64
2023/11/19 03:45:54;;;;;;;10.70;7.47;;;6.50;89.00;;;;;;5064841;28;20209;-64
2023/11/19 03:48:22;;;;;;;11.10;6.70;;;6.50;88.90;;;;;;5067416;28;20278;-63
2023/11/19 03:50:49;;;;;;;11.20;7.70;;;6.50;88.90;;;;;;5048202;28;20252;-63
2023/11/19 03:53:16;;;;;;;10.90;7.50;;;6.50;88.90;;;;;;5067866;28;20198;-63
2023/11/19 03:55:43;;;;;;;9.40;6.63;;;6.50;88.70;;;;;;5055151;28;20211;-64
2023/11/19 03:58:10;;;;;;;11.97;7.63;;;6.50;88.70;;;;;;5062732;28;20201;-64
2023/11/19 04:00:37;;;;;;;8.53;6.93;;;6.50;88.70;;;;;;5061077;28;20206;-63
2023/11/19 04:03:04;;;;;;;10.47;7.50;;;6.50;88.50;;;;;;5064488;28;20214;-63
2023/11/19 04:05:31;;;;;;;15.73;8.03;;;6.50;88.40;;;;;;5054397;28;20206;-63
2023/11/19 04:07:58;;;;;;;16.70;7.40;;;6.50;88.30;;;;;;5045633;28;20213;-63
2023/11/19 04:10:27;;;;;;;10.60;6.77;;;6.40;88.20;;;;;;5058901;28;20268;-64
2023/11/19 04:12:56;;;;;;;11.57;7.23;;;6.40;88.10;;;;;;5062058;28;20199;-64
2023/11/19 04:15:24;;;;;;;11.50;7.40;;;6.40;88.20;;;;;;5061228;28;20677;-63
2023/11/19 04:17:51;;;;;;;12.60;7.93;;;6.40;88.40;;;;;;5064690;28;20235;-63
2023/11/19 04:20:18;;;;;;;13.17;7.20;;;6.30;88.10;;;;;;5047822;28;20210;-63
2023/11/19 04:22:46;;;;;;;10.60;7.63;;;6.30;88.10;;;;;;5062872;28;20218;-64
2023/11/19 04:25:15;;;;;;;12.67;7.57;;;6.30;88.40;;;;;;5061605;28;20236;-63
2023/11/19 04:27:42;;;;;;;8.63;6.80;;;6.30;88.60;;;;;;5065281;28;20237;-63
2023/11/19 04:30:10;;;;;;;10.00;7.13;;;6.20;88.80;;;;;;5063022;28;20282;-63
2023/11/19 04:32:38;;;;;;;13.73;7.80;;;6.20;89.00;;;;;;5064022;28;20230;-63
2023/11/19 04:35:06;;;;;;;10.07;7.20;;;6.20;89.20;;;;;;5065625;28;20230;-63
2023/11/19 04:37:34;;;;;;;12.10;7.93;;;6.20;89.40;;;;;;5062505;28;20570;-63
2023/11/19 04:40:02;;;;;;;7.80;6.70;;;6.20;89.50;;;;;;5064754;28;20202;-63
2023/11/19 04:42:29;;;;;;;9.80;6.70;;;6.10;89.60;;;;;;5055073;28;20218;-63
2023/11/19 04:44:56;;;;;;;13.37;7.10;;;6.10;89.70;;;;;;5061792;28;20193;-63
2023/11/19 04:47:23;;;;;;;11.40;8.03;;;6.10;90.00;;;;;;5067601;28;20292;-64
2023/11/19 04:49:50;;;;;;;10.27;7.53;;;6.00;90.00;;;;;;5058635;28;20248;-63
2023/11/19 04:52:17;;;;;;;10.30;7.23;;;6.00;89.90;;;;;;5057918;28;20201;-63
2023/11/19 04:54:44;;;;;;;12.67;7.60;;;6.00;90.00;;;;;;5054882;28;20233;-63
2023/11/19 04:57:12;;;;;;;10.93;7.60;;;5.90;90.00;;;;;;5063585;28;20280;-63
2023/11/19 04:59:39;;;;;;;11.03;7.40;;;5.90;90.10;;;;;;5063460;28;20619;-63
2023/11/19 05:02:06;;;;;;;12.03;7.63;;;5.90;90.20;;;;;;5064259;28;20220;-63
2023/11/19 05:04:33;;;;;;;12.07;7.27;;;5.90;90.20;;;;;;5061047;28;20230;-63
2023/11/19 05:07:00;;;;;;;13.13;7.43;;;5.90;90.30;;;;;;5064038;28;20197;-64
2023/11/19 05:09:27;;;;;;;15.13;7.73;;;5.90;90.20;;;;;;5064190;28;20268;-64
2023/11/19 05:11:54;;;;;;;11.00;6.90;;;5.80;90.30;;;;;;5060287;28;20209;-63
2023/11/19 05:14:21;;;;;;;9.30;6.63;;;5.80;90.30;;;;;;5066030;28;20215;-63
2023/11/19 05:16:49;;;;;;;12.10;7.50;;;5.80;90.40;;;;;;5064315;28;20205;-63
2023/11/19 05:19:16;;;;;;;11.83;7.07;;;5.80;90.40;;;;;;5062808;28;20204;-63
2023/11/19 05:21:43;;;;;;;14.43;7.73;;;5.80;90.40;;;;;;5060870;28;20289;-63
2023/11/19 05:24:14;;;;;;;11.37;6.97;;;5.90;90.40;;;;;;5062339;28;20198;-63
2023/11/19 05:26:41;;;;;;;10.57;7.20;;;5.80;90.40;;;;;;5060475;28;20211;-63
2023/11/19 05:29:08;;;;;;;11.10;7.20;;;5.80;90.40;;;;;;5062120;28;20583;-63
2023/11/19 05:31:35;;;;;;;9.80;7.00;;;5.90;90.40;;;;;;5069695;28;20198;-63
2023/11/19 05:34:04;;;;;;;8.83;6.93;;;5.80;90.30;;;;;;5062607;28;20640;-63
2023/11/19 05:36:32;;;;;;;10.23;7.03;;;5.80;90.30;;;;;;5063743;28;20206;-63
2023/11/19 05:38:59;;;;;;;9.93;7.17;;;5.80;90.40;;;;;;5060387;28;20214;-63
2023/11/19 05:41:26;;;;;;;8.63;6.57;;;5.90;90.40;;;;;;5060778;28;20195;-63
2023/11/19 05:43:53;;;;;;;8.50;6.47;;;5.90;90.40;;;;;;5065675;28;20277;-63
2023/11/19 05:46:20;;;;;;;7.37;5.83;;;5.90;90.40;;;;;;5061118;28;20208;-63
2023/11/19 05:48:48;;;;;;;10.33;6.93;;;5.90;90.40;;;;;;5065789;28;20198;-63
2023/11/19 05:51:16;;;;;;;11.87;6.70;;;5.90;90.30;;;;;;5062787;28;20222;-63
2023/11/19 05:53:43;;;;;;;8.67;6.93;;;5.90;90.30;;;;;;5059473;28;20284;-63
2023/11/19 05:56:10;;;;;;;13.37;7.23;;;5.90;90.30;;;;;;5066117;28;20212;-63
2023/11/19 05:58:39;;;;;;;7.27;6.20;;;5.90;90.20;;;;;;5063575;28;20285;-63
2023/11/19 06:01:07;;;;;;;8.23;6.50;;;5.90;90.20;;;;;;5065675;28;20209;-63
2023/11/19 06:03:36;;;;;;;11.87;7.37;;;5.80;90.10;;;;;;5061058;28;20691;-64
2023/11/19 06:06:04;;;;;;;10.17;6.70;;;5.80;90.10;;;;;;5057165;28;20199;-63
2023/11/19 06:08:32;;;;;;;10.30;7.30;;;5.80;90.10;;;;;;5067318;28;20201;-64
2023/11/19 06:11:01;;;;;;;9.73;6.90;;;5.80;90.10;;;;;;5064493;28;20198;-63
2023/11/19 06:13:30;;;;;;;8.73;6.67;;;5.80;90.10;;;;;;5060821;28;20288;-64
2023/11/19 06:15:57;;;;;;;8.00;6.23;;;5.80;90.10;;;;;;5058630;28;20215;-64
2023/11/19 06:18:24;;;;;;;9.20;6.97;;;5.80;90.10;;;;;;5065923;28;20271;-64
2023/11/19 06:20:52;;;;;;;7.47;6.73;;;5.80;90.10;;;;;;5066712;28;20646;-64
2023/11/19 06:23:19;;;;;;;8.80;6.87;;;5.70;90.20;;;;;;5068977;28;20243;-64
2023/11/19 06:25:46;;;;;;;9.77;5.83;;;5.70;90.20;;;;;;5068982;28;20197;-63
2023/11/19 06:28:13;;;;;;;15.60;7.90;;;5.70;90.20;;;;;;5065169;28;20212;-63
2023/11/19 06:30:41;;;;;;;9.77;7.37;;;5.70;90.20;;;;;;5069683;28;20285;-63
2023/11/19 06:33:08;;;;;;;10.70;7.03;;;5.70;90.20;;;;;;5067214;28;20209;-63
2023/11/19 06:35:36;;;;;;;8.00;6.30;;;5.60;90.10;;;;;;5067674;28;20212;-63
2023/11/19 06:38:04;;;;;;;10.00;6.80;;;5.60;90.20;;;;;;5061721;28;20211;-63
2023/11/19 06:40:37;;;;;;;8.43;6.50;;;5.60;90.30;;;;;;5060407;28;20217;-63
2023/11/19 06:43:04;;;;;;;9.23;6.63;;;5.60;90.30;;;;;;5065250;28;20225;-63
2023/11/19 06:45:32;;;;;;;10.40;6.37;;;5.60;90.30;;;;;;5068510;28;20197;-63
2023/11/19 06:48:03;;;;;;;10.03;6.80;;;5.60;90.30;;;;;;5066048;28;20202;-63
2023/11/19 06:50:31;;;;;;;8.47;6.47;;;5.60;90.40;;;;;;5065631;28;20196;-63
2023/11/19 06:52:58;;;;;;;10.47;6.80;;;5.60;90.50;;;;;;5062424;28;20236;-63
2023/11/19 06:55:25;;;;;;;9.03;6.60;;;5.60;90.50;;;;;;5066450;28;20530;-63
2023/11/19 06:57:53;;;;;;;11.97;6.93;;;5.60;90.60;;;;;;5068819;28;20589;-63
2023/11/19 07:00:20;;;;;;;9.13;6.20;;;5.70;90.70;;;;;;5067934;28;20258;-63
2023/11/19 07:02:47;;;;;;;8.53;6.30;;;5.80;90.70;;;;;;5065724;28;20543;-63
2023/11/19 07:05:14;;;;;;;8.60;6.37;;;5.80;90.60;;;;;;5058517;28;20304;-63
2023/11/19 07:07:41;;;;;;;8.60;7.10;;;5.80;90.60;;;;;;5062479;28;20215;-63
2023/11/19 07:10:09;;;;;;;7.93;6.33;;;5.90;90.60;;;;;;5068090;28;20198;-63
2023/11/19 07:12:37;;;;;;;8.37;6.90;;;6.00;90.60;;;;;;5065362;28;20236;-63
2023/11/19 07:15:08;;;;;;;8.37;5.90;;;6.00;90.60;;;;;;5066036;28;20197;-63
2023/11/19 07:17:36;;;;;;;16.07;6.30;;;6.00;90.60;;;;;;5064193;28;20217;-64
2023/11/19 07:20:04;;;;;;;10.63;6.93;;;6.10;90.70;;;;;;5064386;28;20491;-63
2023/11/19 07:22:31;;;;;;;6.93;5.83;;;6.20;90.70;;;;;;5066191;28;20225;-63
2023/11/19 07:24:58;;;;;;;7.63;6.23;;;6.20;90.80;;;;;;5068570;28;20206;-64
2023/11/19 07:27:26;;;;;;;9.53;6.03;;;6.30;90.80;;;;;;5062099;28;20198;-64
2023/11/19 07:29:52;;;;;;;10.83;6.13;;;6.40;90.80;;;;;;5052966;28;20679;-63
2023/11/19 07:32:19;;;;;;;9.23;6.43;;;6.40;90.80;;;;;;5061683;28;20205;-63
2023/11/19 07:34:46;;;;;;;12.23;6.23;;;6.50;90.70;;;;;;5068242;28;20218;-63
2023/11/19 07:37:13;;;;;;;8.30;6.27;;;6.60;90.60;;;;;;5067834;28;20635;-63
2023/11/19 07:39:41;;;;;;;8.50;5.70;;;6.80;90.60;;;;;;5065028;28;20683;-63
2023/11/19 07:42:09;;;;;;;9.07;6.10;;;6.90;90.50;;;;;;5058615;28;20238;-63
2023/11/19 07:44:36;;;;;;;8.00;5.67;;;6.90;90.40;;;;;;5063099;28;20226;-63
2023/11/19 07:47:04;;;;;;;9.87;6.43;;;7.10;90.30;;;;;;5068134;28;20198;-63
2023/11/19 07:49:31;;;;;;;8.50;6.07;;;7.20;90.20;;;;;;5064660;28;20512;-63
2023/11/19 07:51:58;;;;;;;6.77;5.93;;;7.40;90.10;;;;;;5059377;28;20186;-63
2023/11/19 07:54:26;;;;;;;11.57;6.27;;;7.50;90.00;;;;;;5062196;28;20210;-63
2023/11/19 07:56:53;;;;;;;8.43;6.07;;;7.60;89.70;;;;;;5064955;28;20281;-63
2023/11/19 07:59:20;;;;;;;9.00;6.07;;;7.70;89.60;;;;;;5058762;28;20217;-63
2023/11/19 08:01:47;;;;;;;10.90;6.37;;;7.90;89.00;;;;;;5064543;28;20258;-64
2023/11/19 08:04:15;;;;;;;8.87;5.67;;;8.00;88.60;;;;;;5063673;28;20238;-64
2023/11/19 08:06:42;;;;;;;8.73;6.03;;;8.10;87.80;;;;;;5064074;28;20189;-63
2023/11/19 08:09:13;;;;;;;8.17;6.17;;;8.30;87.40;;;;;;5047755;28;20195;-63
2023/11/19 08:11:41;;;;;;;6.80;5.60;;;8.30;87.10;;;;;;5065732;28;20191;-63
2023/11/19 08:14:09;;;;;;;6.53;5.77;;;8.50;86.90;;;;;;5055691;28;20245;-63
2023/11/19 08:16:38;;;;;;;7.63;6.20;;;8.60;86.70;;;;;;5067788;28;20259;-63
2023/11/19 08:19:05;;;;;;;8.27;5.43;;;8.70;86.50;;;;;;5056722;28;20264;-63
2023/11/19 08:21:32;;;;;;;5.90;5.30;;;8.80;86.20;;;;;;5065696;28;20253;-63
2023/11/19 08:23:59;;;;;;;8.77;6.37;;;8.90;85.80;;;;;;5064146;28;20233;-63
2023/11/19 08:26:26;;;;;;;6.80;5.30;;;9.10;85.60;;;;;;5065271;28;20210;-63
2023/11/19 08:28:53;;;;;;;11.53;6.03;;;9.20;85.50;;;;;;5058613;28;20201;-63
2023/11/19 08:31:20;;;;;;;9.00;5.67;;;9.30;85.20;;;;;;5060299;28;20264;-63
2023/11/19 08:33:47;;;;;;;7.03;4.90;;;9.40;85.00;;;;;;5062996;28;20642;-63
2023/11/19 08:36:18;;;;;;;11.67;5.70;;;9.50;84.80;;;;;;5064947;28;20214;-63
2023/11/19 08:38:46;;;;;;;9.40;5.90;;;9.60;84.40;;;;;;5060381;28;20293;-63
2023/11/19 08:41:17;;;;;;;6.63;5.53;;;9.70;84.20;;;;;;5051111;28;20522;-63
2023/11/19 08:43:45;;;;;;;7.43;6.17;;;9.80;83.60;;;;;;5061646;28;20609;-63
2023/11/19 08:46:12;;;;;;;6.77;4.97;;;9.90;83.10;;;;;;5061719;28;20194;-63
2023/11/19 08:48:39;;;;;;;8.73;5.63;;;9.90;82.70;;;;;;5063667;28;20196;-63
2023/11/19 08:51:07;;;;;;;11.23;5.90;;;10.00;82.30;;;;;;5067302;28;20194;-63
2023/11/19 08:53:34;;;;;;;6.57;5.30;;;10.10;81.90;;;;;;5064094;28;20293;-63
2023/11/19 08:56:02;;;;;;;7.20;5.70;;;10.20;81.30;;;;;;5064090;28;20207;-63
2023/11/19 08:58:30;;;;;;;6.90;5.10;;;10.20;81.10;;;;;;5060799;28;20572;-64
2023/11/19 09:00:58;;;;;;;7.90;5.60;;;10.30;80.80;;;;;;5062361;28;20285;-64
2023/11/19 09:03:29;;;;;;;8.10;5.47;;;10.40;80.60;;;;;;5061393;28;20240;-63
2023/11/19 09:05:57;;;;;;;6.00;5.10;;;10.40;80.50;;;;;;5059890;28;20264;-63
2023/11/19 09:08:24;;;;;;;5.37;4.80;;;10.50;80.40;;;;;;5061613;28;20204;-63
2023/11/19 09:10:51;;;;;;;8.00;5.03;;;10.60;80.50;;;;;;5061725;28;20593;-63
2023/11/19 09:13:18;;;;;;;5.80;5.20;;;10.70;80.50;;;;;;5063841;28;20251;-63
2023/11/19 09:15:45;;;;;;;5.87;5.23;;;10.70;80.20;;;;;;5057081;28;20209;-63
2023/11/19 09:18:13;;;;;;;6.20;5.17;;;10.80;79.80;;;;;;5058383;28;20298;-63
2023/11/19 09:20:40;;;;;;;4.90;4.40;;;10.90;79.90;;;;;;5061502;28;20212;-63
2023/11/19 09:23:08;;;;;;;7.03;5.33;;;10.90;79.90;;;;;;5064688;28;20279;-63
2023/11/19 09:25:36;;;;;;;7.00;4.83;;;11.00;79.10;;;;;;5063435;28;20191;-63
2023/11/19 09:28:05;;;;;;;5.63;4.60;;;11.00;78.60;;;;;;5064333;28;20222;-63
2023/11/19 09:30:33;;;;;;;4.63;4.17;;;11.10;78.80;;;;;;5057048;28;20618;-63
2023/11/19 09:33:01;;;;;;;6.27;4.73;;;11.20;78.50;;;;;;5060728;28;20286;-63
2023/11/19 09:35:28;;;;;;;232.93;126.17;;;11.30;78.20;;;;;;5068390;28;20203;-64
2023/11/19 09:37:55;;;;;;;33.47;28.40;;;11.30;77.80;;;;;;5060748;28;20212;-63
2023/11/19 09:40:23;;;;;;;77.03;59.30;;;11.40;78.10;;;;;;5058398;28;20213;-63
2023/11/19 09:42:50;;;;;;;10.23;7.47;;;11.50;78.00;;;;;;5055975;28;20232;-63
2023/11/19 09:45:20;;;;;;;7.20;4.67;;;11.70;77.70;;;;;;5062287;28;20215;-63
2023/11/19 09:47:47;;;;;;;17.13;7.47;;;11.80;77.50;;;;;;5062301;28;20211;-63
2023/11/19 09:50:18;;;;;;;5.97;4.23;;;11.90;77.20;;;;;;5062434;28;20204;-63
2023/11/19 09:52:46;;;;;;;5.40;4.07;;;12.00;76.50;;;;;;5050809;28;20208;-62
2023/11/19 09:55:14;;;;;;;4.20;3.50;;;12.10;76.10;;;;;;5066353;28;20260;-63
2023/11/19 09:57:41;;;;;;;6.83;3.93;;;12.20;75.90;;;;;;5064971;28;20255;-63
2023/11/19 10:00:10;;;;;;;4.90;3.50;;;12.30;75.80;;;;;;5068314;28;20220;-63
2023/11/19 10:02:39;;;;;;;5.20;4.33;;;12.30;75.10;;;;;;5067201;28;20646;-63
2023/11/19 10:05:07;;;;;;;6.77;4.40;;;12.40;74.70;;;;;;5067112;28;20253;-63
2023/11/19 10:07:34;;;;;;;5.00;3.90;;;12.50;74.50;;;;;;5064408;28;20677;-63
2023/11/19 10:10:05;;;;;;;3.93;3.50;;;12.60;74.60;;;;;;5062750;28;20205;-63
2023/11/19 10:12:32;;;;;;;4.33;3.53;;;12.70;74.50;;;;;;5066515;28;20742;-64
2023/11/19 10:14:59;;;;;;;8.40;3.97;;;12.80;74.00;;;;;;5062833;28;20557;-63
2023/11/19 10:17:33;;;;;;;4.37;3.60;;;12.90;73.50;;;;;;5052861;28;20212;-63
2023/11/19 10:20:01;;;;;;;6.70;4.47;;;13.00;72.30;;;;;;5062632;28;20293;-63
2023/11/19 10:22:28;;;;;;;5.20;3.80;;;13.00;71.50;;;;;;5065278;28;20209;-64
2023/11/19 10:24:55;;;;;;;4.90;3.80;;;13.10;70.90;;;;;;5064792;28;20219;-63
2023/11/19 10:27:25;;;;;;;5.50;4.60;;;13.10;71.00;;;;;;5064917;28;20692;-63
2023/11/19 10:29:52;;;;;;;5.50;4.13;;;13.10;71.30;;;;;;5066801;28;20506;-63
2023/11/19 10:32:20;;;;;;;5.43;3.80;;;13.10;71.60;;;;;;5062674;28;20280;-63
2023/11/19 10:35:06;;;;;;;7.93;4.47;;;13.20;71.80;;;;;;5069566;28;20223;-63
2023/11/19 10:37:35;;;;;;;7.13;4.47;;;13.20;71.90;;;;;;5062654;28;20199;-63
2023/11/19 10:40:05;;;;;;;5.37;4.53;;;13.30;71.20;;;;;;5061158;28;20678;-63
2023/11/19 10:42:32;;;;;;;5.23;4.43;;;13.30;70.80;;;;;;5042953;28;20689;-63
2023/11/19 10:44:59;;;;;;;5.63;4.03;;;13.40;71.10;;;;;;5062870;28;20678;-64
2023/11/19 10:47:26;;;;;;;7.10;4.67;;;13.50;71.40;;;;;;5061005;28;20672;-64
2023/11/19 10:49:56;;;;;;;6.47;4.40;;;13.60;70.50;;;;;;5062061;28;20198;-64
2023/11/19 10:52:24;;;;;;;6.37;4.67;;;13.70;70.40;;;;;;5066757;28;20205;-64
2023/11/19 10:54:53;;;;;;;5.80;4.87;;;13.80;70.70;;;;;;5052541;28;20263;-64
2023/11/19 10:57:24;;;;;;;7.10;4.37;;;13.90;71.00;;;;;;5065220;28;20205;-64
2023/11/19 10:59:55;;;;;;;5.10;4.23;;;14.00;71.20;;;;;;5066032;28;20199;-64
2023/11/19 11:02:26;;;;;;;8.03;4.83;;;14.10;71.30;;;;;;5063336;28;20228;-64
2023/11/19 11:04:54;;;;;;;5.00;3.93;;;14.20;71.40;;;;;;5061828;28;20238;-64
2023/11/19 11:07:25;;;;;;;5.43;4.40;;;14.30;71.00;;;;;;5068254;28;20196;-64
2023/11/19 11:10:07;;;;;;;5.00;3.57;;;14.50;70.70;;;;;;5066393;28;20228;-64
2023/11/19 11:12:39;;;;;;;6.10;4.23;;;14.60;70.40;;;;;;5065523;28;20204;-63
2023/11/19 11:15:08;;;;;;;7.23;4.23;;;14.80;69.70;;;;;;5061943;28;20213;-63
2023/11/19 11:17:36;;;;;;;4.70;3.80;;;14.90;68.40;;;;;;5062684;28;20230;-63
2023/11/19 11:20:05;;;;;;;6.77;3.87;;;14.90;68.60;;;;;;5069615;28;20229;-64
2023/11/19 11:23:14;;;;;;;6.43;3.97;;;15.00;69.10;;;;;;5064438;28;20200;-64
2023/11/19 11:26:07;;;;;;;5.33;4.07;;;15.10;68.80;;;;;;4974097;28;20213;-64
2023/11/19 11:28:46;;;;;;;5.80;4.17;;;15.30;68.50;;;;;;5057144;28;20609;-64
2023/11/19 11:31:48;;;;;;;5.60;4.57;;;15.40;68.30;;;;;;5062161;28;20612;-64
2023/11/19 11:34:38;;;;;;;7.17;3.87;;;15.50;67.80;;;;;;5060514;28;20205;-64
2023/11/19 11:37:08;;;;;;;5.83;4.50;;;15.60;67.30;;;;;;5053570;28;20226;-64
2023/11/19 11:39:36;;;;;;;8.57;5.23;;;15.60;67.10;;;;;;5063598;28;20206;-64
2023/11/19 11:42:34;;;;;;;7.80;4.63;;;15.70;66.70;;;;;;5059892;28;20222;-63
2023/11/19 11:45:13;;;;;;;6.67;5.20;;;15.80;66.20;;;;;;5060971;28;20606;-63
2023/11/19 11:47:43;;;;;;;6.57;4.37;;;15.90;65.80;;;;;;5065639;28;20284;-63
2023/11/19 11:50:13;;;;;;;10.63;4.87;;;16.00;65.10;;;;;;5053323;28;20285;-64
2023/11/19 11:52:59;;;;;;;8.70;4.73;;;16.00;65.10;;;;;;5057787;28;20705;-64
2023/11/19 11:55:36;;;;;;;5.90;3.97;;;16.10;65.00;;;;;;5048664;28;20294;-64
2023/11/19 11:58:06;;;;;;;5.80;4.63;;;16.20;64.50;;;;;;5062487;28;20195;-64
2023/11/19 12:00:38;;;;;;;6.43;4.43;;;16.20;63.90;;;;;;5062891;28;20224;-64
2023/11/19 12:03:07;;;;;;;5.00;4.50;;;16.20;63.70;;;;;;5061127;28;20301;-64
2023/11/19 12:05:40;;;;;;;8.43;4.60;;;16.20;63.90;;;;;;5051570;28;20199;-63
2023/11/19 12:08:11;;;;;;;5.77;4.83;;;16.20;64.10;;;;;;5068291;28;20587;-63
2023/11/19 12:10:53;;;;;;;5.33;4.23;;;16.30;64.20;;;;;;5062243;28;20213;-63
2023/11/19 12:13:24;;;;;;;7.27;4.70;;;16.30;64.30;;;;;;5064100;28;20257;-63
2023/11/19 12:15:57;;;;;;;4.50;4.00;;;16.40;64.20;;;;;;5060333;28;20202;-63
2023/11/19 12:18:31;;;;;;;8.87;4.27;;;16.40;64.30;;;;;;5060187;28;20313;-64
2023/11/19 12:21:00;;;;;;;7.13;3.93;;;16.50;64.40;;;;;;5065081;28;20227;-63
2023/11/19 12:23:29;;;;;;;4.37;3.97;;;16.50;64.20;;;;;;5064251;28;20214;-63
2023/11/19 12:25:57;;;;;;;6.73;4.93;;;16.60;63.90;;;;;;5063412;28;20193;-63
2023/11/19 12:28:26;;;;;;;10.03;4.30;;;16.70;63.50;;;;;;5064659;28;20211;-63
2023/11/19 12:30:53;;;;;;;7.13;4.87;;;16.70;63.30;;;;;;5066741;28;20209;-63
2023/11/19 12:33:21;;;;;;;6.10;4.23;;;16.70;62.90;;;;;;5070862;28;20201;-63
2023/11/19 12:35:48;;;;;;;5.40;4.90;;;16.70;62.90;;;;;;5063735;28;20520;-64
2023/11/19 12:38:22;;;;;;;9.67;4.40;;;16.70;63.10;;;;;;5065966;28;20208;-64
2023/11/19 12:41:06;;;;;;;5.00;4.43;;;16.70;62.90;;;;;;5061069;28;20223;-64
2023/11/19 12:43:40;;;;;;;6.80;4.83;;;16.70;63.10;;;;;;5051617;28;20231;-64
2023/11/19 12:46:23;;;;;;;5.30;4.20;;;16.70;63.30;;;;;;5069087;28;20193;-64
2023/11/19 12:48:51;;;;;;;5.03;4.30;;;16.70;63.30;;;;;;5064997;28;20198;-63
2023/11/19 12:51:19;;;;;;;6.10;4.57;;;16.70;63.60;;;;;;5063490;28;20255;-63
2023/11/19 12:53:49;;;;;;;5.83;4.77;;;16.60;63.80;;;;;;5066598;28;20263;-64
2023/11/19 12:56:17;;;;;;;6.27;5.17;;;16.60;64.20;;;;;;5064075;28;20217;-64
2023/11/19 12:58:43;;;;;;;5.97;4.47;;;16.50;64.60;;;;;;5064896;28;20263;-64